sensor_id;sensor_type;location;lat;lon;timestamp;temperature;humidity
73586;DHT22;61865;50.232;18.614;2023-01-09T00:01:23;3.10;99.90
73586;DHT22;61865;50.232;18.614;2023-01-09T00:03:45;3.00;99.90
73586;DHT22;61865;50.232;18.614;2023-01-09T00:06:07;2.90;99.90
73586;DHT22;61865;50.232;18.614;2023-01-09T00:08:31;2.80;99.90
73586;DHT22;61865;50.232;18.614;2023-01-09T00:10:53;2.70;99.90
73586;DHT22;61865;50.232;18.614;2023-01-09T00:13:15;2.60;99.90
73586;DHT22;61865;50.232;18.614;2023-01-09T00:15:37;2.50;99.90
73586;DHT22;61865;50.232;18.614;2023-01-09T00:17:59;2.40;99.90
73586;DHT22;61865;50.232;18.614;2023-01-09T00:20:21;2.40;99.90
73586;DHT22;61865;50.232;18.614;2023-01-09T00:22:43;2.40;99.90
73586;DHT22;61865;50.232;18.614;2023-01-09T00:25:08;2.40;99.90
73586;DHT22;61865;50.232;18.614;2023-01-09T00:27:30;2.40;99.90
73586;DHT22;61865;50.232;18.614;2023-01-09T00:29:52;2.40;99.90
73586;DHT22;61865;50.232;18.614;2023-01-09T00:32:16;2.30;99.90
73586;DHT22;61865;50.232;18.614;2023-01-09T00:34:39;2.30;99.90
73586;DHT22;61865;50.232;18.614;2023-01-09T00:37:02;2.20;99.90
73586;DHT22;61865;50.232;18.614;2023-01-09T00:39:31;2.20;99.90
73586;DHT22;61865;50.232;18.614;2023-01-09T00:41:54;2.20;99.90
73586;DHT22;61865;50.232;18.614;2023-01-09T00:44:20;2.20;99.90
73586;DHT22;61865;50.232;18.614;2023-01-09T00:46:46;2.30;99.90
73586;DHT22;61865;50.232;18.614;2023-01-09T00:49:10;2.30;99.90
73586;DHT22;61865;50.232;18.614;2023-01-09T00:51:33;2.40;99.90
73586;DHT22;61865;50.232;18.614;2023-01-09T00:53:55;2.50;99.90
73586;DHT22;61865;50.232;18.614;2023-01-09T00:56:18;2.60;99.90
73586;DHT22;61865;50.232;18.614;2023-01-09T00:58:42;2.60;99.90
73586;DHT22;61865;50.232;18.614;2023-01-09T01:01:04;2.60;99.90
73586;DHT22;61865;50.232;18.614;2023-01-09T01:03:26;2.60;99.90
73586;DHT22;61865;50.232;18.614;2023-01-09T01:05:48;2.60;99.90
73586;DHT22;61865;50.232;18.614;2023-01-09T01:08:28;2.60;99.90
73586;DHT22;61865;50.232;18.614;2023-01-09T01:10:50;2.50;99.90
73586;DHT22;61865;50.232;18.614;2023-01-09T01:13:11;2.50;99.90
73586;DHT22;61865;50.232;18.614;2023-01-09T01:15:37;2.50;99.90
73586;DHT22;61865;50.232;18.614;2023-01-09T01:17:59;2.40;99.90
73586;DHT22;61865;50.232;18.614;2023-01-09T01:20:21;2.40;99.90
73586;DHT22;61865;50.232;18.614;2023-01-09T01:22:43;2.40;99.90
73586;DHT22;61865;50.232;18.614;2023-01-09T01:25:05;2.40;99.90
73586;DHT22;61865;50.232;18.614;2023-01-09T01:27:27;2.30;99.90
73586;DHT22;61865;50.232;18.614;2023-01-09T01:29:49;2.30;99.90
73586;DHT22;61865;50.232;18.614;2023-01-09T01:32:13;2.20;99.90
73586;DHT22;61865;50.232;18.614;2023-01-09T01:34:34;2.30;99.90
73586;DHT22;61865;50.232;18.614;2023-01-09T01:36:56;2.30;99.90
73586;DHT22;61865;50.232;18.614;2023-01-09T01:39:18;2.30;99.90
73586;DHT22;61865;50.232;18.614;2023-01-09T01:41:40;2.40;99.90
73586;DHT22;61865;50.232;18.614;2023-01-09T01:44:04;2.50;99.90
73586;DHT22;61865;50.232;18.614;2023-01-09T01:46:27;2.50;99.90
73586;DHT22;61865;50.232;18.614;2023-01-09T01:48:52;2.50;99.90
73586;DHT22;61865;50.232;18.614;2023-01-09T01:51:16;2.40;99.90
73586;DHT22;61865;50.232;18.614;2023-01-09T01:53:40;2.40;99.90
73586;DHT22;61865;50.232;18.614;2023-01-09T01:56:09;2.40;99.90
73586;DHT22;61865;50.232;18.614;2023-01-09T01:58:32;2.40;99.90
73586;DHT22;61865;50.232;18.614;2023-01-09T02:00:55;2.30;99.90
73586;DHT22;61865;50.232;18.614;2023-01-09T02:03:20;2.20;99.90
73586;DHT22;61865;50.232;18.614;2023-01-09T02:05:45;2.20;99.90
73586;DHT22;61865;50.232;18.614;2023-01-09T02:08:07;2.10;99.90
73586;DHT22;61865;50.232;18.614;2023-01-09T02:10:29;2.10;99.90
73586;DHT22;61865;50.232;18.614;2023-01-09T02:12:51;2.10;99.90
73586;DHT22;61865;50.232;18.614;2023-01-09T02:15:14;2.00;99.90
73586;DHT22;61865;50.232;18.614;2023-01-09T02:17:58;2.10;99.90
73586;DHT22;61865;50.232;18.614;2023-01-09T02:20:38;2.10;99.90
73586;DHT22;61865;50.232;18.614;2023-01-09T02:23:35;2.20;99.90
73586;DHT22;61865;50.232;18.614;2023-01-09T02:26:22;2.20;99.90
73586;DHT22;61865;50.232;18.614;2023-01-09T02:29:05;2.30;99.90
73586;DHT22;61865;50.232;18.614;2023-01-09T02:31:36;2.30;99.90
73586;DHT22;61865;50.232;18.614;2023-01-09T02:34:06;2.20;99.90
73586;DHT22;61865;50.232;18.614;2023-01-09T02:36:35;2.20;99.90
73586;DHT22;61865;50.232;18.614;2023-01-09T02:39:10;2.20;99.90
73586;DHT22;61865;50.232;18.614;2023-01-09T02:41:38;2.40;99.90
73586;DHT22;61865;50.232;18.614;2023-01-09T02:44:17;2.50;99.90
73586;DHT22;61865;50.232;18.614;2023-01-09T02:46:42;2.50;99.90
73586;DHT22;61865;50.232;18.614;2023-01-09T02:49:04;2.50;99.90
73586;DHT22;61865;50.232;18.614;2023-01-09T02:51:35;2.50;99.90
73586;DHT22;61865;50.232;18.614;2023-01-09T02:54:18;2.50;99.90
73586;DHT22;61865;50.232;18.614;2023-01-09T02:56:50;2.50;99.90
73586;DHT22;61865;50.232;18.614;2023-01-09T02:59:22;2.50;99.90
73586;DHT22;61865;50.232;18.614;2023-01-09T03:01:57;2.50;99.90
73586;DHT22;61865;50.232;18.614;2023-01-09T03:04:29;2.50;99.90
73586;DHT22;61865;50.232;18.614;2023-01-09T03:07:02;2.60;99.90
73586;DHT22;61865;50.232;18.614;2023-01-09T03:09:32;2.60;99.90
73586;DHT22;61865;50.232;18.614;2023-01-09T03:11:57;2.70;99.90
73586;DHT22;61865;50.232;18.614;2023-01-09T03:14:22;2.80;99.90
73586;DHT22;61865;50.232;18.614;2023-01-09T03:16:51;2.90;99.90
73586;DHT22;61865;50.232;18.614;2023-01-09T03:19:16;3.00;99.90
73586;DHT22;61865;50.232;18.614;2023-01-09T03:21:39;3.00;99.90
73586;DHT22;61865;50.232;18.614;2023-01-09T03:24:01;3.00;99.90
73586;DHT22;61865;50.232;18.614;2023-01-09T03:26:24;3.00;99.90
73586;DHT22;61865;50.232;18.614;2023-01-09T03:28:46;3.10;99.90
73586;DHT22;61865;50.232;18.614;2023-01-09T03:31:08;3.10;99.90
73586;DHT22;61865;50.232;18.614;2023-01-09T03:33:31;3.10;99.90
73586;DHT22;61865;50.232;18.614;2023-01-09T03:35:53;3.10;99.90
73586;DHT22;61865;50.232;18.614;2023-01-09T03:38:15;3.00;99.90
73586;DHT22;61865;50.232;18.614;2023-01-09T03:40:37;3.00;99.90
73586;DHT22;61865;50.232;18.614;2023-01-09T03:42:59;3.00;99.90
73586;DHT22;61865;50.232;18.614;2023-01-09T03:45:21;3.10;99.90
73586;DHT22;61865;50.232;18.614;2023-01-09T03:47:43;3.10;99.90
73586;DHT22;61865;50.232;18.614;2023-01-09T03:50:07;3.10;99.90
73586;DHT22;61865;50.232;18.614;2023-01-09T03:52:29;3.20;99.90
73586;DHT22;61865;50.232;18.614;2023-01-09T03:54:51;3.20;99.90
73586;DHT22;61865;50.232;18.614;2023-01-09T03:57:13;3.20;99.90
73586;DHT22;61865;50.232;18.614;2023-01-09T03:59:35;3.20;99.90
73586;DHT22;61865;50.232;18.614;2023-01-09T04:01:57;3.20;99.90
73586;DHT22;61865;50.232;18.614;2023-01-09T04:04:19;3.20;99.90
73586;DHT22;61865;50.232;18.614;2023-01-09T04:06:42;3.20;99.90
73586;DHT22;61865;50.232;18.614;2023-01-09T04:09:04;3.20;99.90
73586;DHT22;61865;50.232;18.614;2023-01-09T04:11:26;3.20;99.90
73586;DHT22;61865;50.232;18.614;2023-01-09T04:13:48;3.20;99.90
73586;DHT22;61865;50.232;18.614;2023-01-09T04:16:10;3.20;99.90
73586;DHT22;61865;50.232;18.614;2023-01-09T04:18:31;3.10;99.90
73586;DHT22;61865;50.232;18.614;2023-01-09T04:20:53;3.20;99.90
73586;DHT22;61865;50.232;18.614;2023-01-09T04:23:17;3.20;99.90
73586;DHT22;61865;50.232;18.614;2023-01-09T04:25:38;3.20;99.90
73586;DHT22;61865;50.232;18.614;2023-01-09T04:28:00;3.20;99.90
73586;DHT22;61865;50.232;18.614;2023-01-09T04:30:22;3.20;99.90
73586;DHT22;61865;50.232;18.614;2023-01-09T04:32:44;3.20;99.90
73586;DHT22;61865;50.232;18.614;2023-01-09T04:35:07;3.20;99.90
73586;DHT22;61865;50.232;18.614;2023-01-09T04:37:29;3.10;99.90
73586;DHT22;61865;50.232;18.614;2023-01-09T04:39:52;3.20;99.90
73586;DHT22;61865;50.232;18.614;2023-01-09T04:42:15;3.20;99.90
73586;DHT22;61865;50.232;18.614;2023-01-09T04:44:37;3.20;99.90
73586;DHT22;61865;50.232;18.614;2023-01-09T04:46:59;3.30;99.90
73586;DHT22;61865;50.232;18.614;2023-01-09T04:49:22;3.40;99.90
73586;DHT22;61865;50.232;18.614;2023-01-09T04:51:44;3.40;99.90
73586;DHT22;61865;50.232;18.614;2023-01-09T04:54:06;3.50;99.90
73586;DHT22;61865;50.232;18.614;2023-01-09T04:56:29;3.60;99.90
73586;DHT22;61865;50.232;18.614;2023-01-09T04:58:51;3.60;99.90
73586;DHT22;61865;50.232;18.614;2023-01-09T05:01:13;3.60;99.90
73586;DHT22;61865;50.232;18.614;2023-01-09T05:03:34;3.50;99.90
73586;DHT22;61865;50.232;18.614;2023-01-09T05:05:56;3.50;99.90
73586;DHT22;61865;50.232;18.614;2023-01-09T05:08:18;3.50;99.90
73586;DHT22;61865;50.232;18.614;2023-01-09T05:10:40;3.50;99.90
73586;DHT22;61865;50.232;18.614;2023-01-09T05:13:03;3.50;99.90
73586;DHT22;61865;50.232;18.614;2023-01-09T05:15:25;3.50;99.90
73586;DHT22;61865;50.232;18.614;2023-01-09T05:17:47;3.50;99.90
73586;DHT22;61865;50.232;18.614;2023-01-09T05:20:09;3.50;99.90
73586;DHT22;61865;50.232;18.614;2023-01-09T05:22:31;3.50;99.90
73586;DHT22;61865;50.232;18.614;2023-01-09T05:24:53;3.50;99.90
73586;DHT22;61865;50.232;18.614;2023-01-09T05:27:15;3.50;99.90
73586;DHT22;61865;50.232;18.614;2023-01-09T05:29:38;3.50;99.90
73586;DHT22;61865;50.232;18.614;2023-01-09T05:32:00;3.50;99.90
73586;DHT22;61865;50.232;18.614;2023-01-09T05:34:22;3.60;99.90
73586;DHT22;61865;50.232;18.614;2023-01-09T05:36:44;3.60;99.90
73586;DHT22;61865;50.232;18.614;2023-01-09T05:39:06;3.60;99.90
73586;DHT22;61865;50.232;18.614;2023-01-09T05:41:28;3.70;99.90
73586;DHT22;61865;50.232;18.614;2023-01-09T05:43:50;3.80;99.90
73586;DHT22;61865;50.232;18.614;2023-01-09T05:46:13;3.80;99.90
73586;DHT22;61865;50.232;18.614;2023-01-09T05:48:35;3.90;99.90
73586;DHT22;61865;50.232;18.614;2023-01-09T05:50:57;3.90;99.90
73586;DHT22;61865;50.232;18.614;2023-01-09T05:53:19;4.00;99.90
73586;DHT22;61865;50.232;18.614;2023-01-09T05:55:41;4.00;99.90
73586;DHT22;61865;50.232;18.614;2023-01-09T05:58:03;4.10;99.90
73586;DHT22;61865;50.232;18.614;2023-01-09T06:00:25;4.20;99.90
73586;DHT22;61865;50.232;18.614;2023-01-09T06:02:48;4.20;99.90
73586;DHT22;61865;50.232;18.614;2023-01-09T06:05:10;4.30;99.90
73586;DHT22;61865;50.232;18.614;2023-01-09T06:07:32;4.40;99.90
73586;DHT22;61865;50.232;18.614;2023-01-09T06:09:56;4.40;99.90
73586;DHT22;61865;50.232;18.614;2023-01-09T06:12:18;4.40;99.90
73586;DHT22;61865;50.232;18.614;2023-01-09T06:14:39;4.50;99.90
73586;DHT22;61865;50.232;18.614;2023-01-09T06:17:02;4.50;99.90
73586;DHT22;61865;50.232;18.614;2023-01-09T06:19:25;4.60;99.90
73586;DHT22;61865;50.232;18.614;2023-01-09T06:21:47;4.60;99.90
73586;DHT22;61865;50.232;18.614;2023-01-09T06:24:09;4.60;99.90
73586;DHT22;61865;50.232;18.614;2023-01-09T06:26:32;4.60;99.90
73586;DHT22;61865;50.232;18.614;2023-01-09T06:28:54;4.60;99.90
73586;DHT22;61865;50.232;18.614;2023-01-09T06:31:16;4.70;99.90
73586;DHT22;61865;50.232;18.614;2023-01-09T06:33:38;4.70;99.90
73586;DHT22;61865;50.232;18.614;2023-01-09T06:36:01;4.70;99.90
73586;DHT22;61865;50.232;18.614;2023-01-09T06:38:23;4.80;99.90
73586;DHT22;61865;50.232;18.614;2023-01-09T06:40:45;4.90;99.90
73586;DHT22;61865;50.232;18.614;2023-01-09T06:43:08;4.90;99.90
73586;DHT22;61865;50.232;18.614;2023-01-09T06:45:30;5.00;99.90
73586;DHT22;61865;50.232;18.614;2023-01-09T06:47:52;5.00;99.90
73586;DHT22;61865;50.232;18.614;2023-01-09T06:50:13;5.00;99.90
73586;DHT22;61865;50.232;18.614;2023-01-09T06:52:37;5.00;99.90
73586;DHT22;61865;50.232;18.614;2023-01-09T06:54:59;5.00;99.90
73586;DHT22;61865;50.232;18.614;2023-01-09T06:57:21;5.00;99.90
73586;DHT22;61865;50.232;18.614;2023-01-09T06:59:43;5.00;99.90
73586;DHT22;61865;50.232;18.614;2023-01-09T07:02:05;5.00;99.90
73586;DHT22;61865;50.232;18.614;2023-01-09T07:04:27;5.00;99.90
73586;DHT22;61865;50.232;18.614;2023-01-09T07:06:49;5.10;99.90
73586;DHT22;61865;50.232;18.614;2023-01-09T07:09:12;5.10;99.90
73586;DHT22;61865;50.232;18.614;2023-01-09T07:11:34;5.10;99.90
73586;DHT22;61865;50.232;18.614;2023-01-09T07:13:56;5.10;99.90
73586;DHT22;61865;50.232;18.614;2023-01-09T07:16:18;5.20;99.90
73586;DHT22;61865;50.232;18.614;2023-01-09T07:18:40;5.20;99.90
73586;DHT22;61865;50.232;18.614;2023-01-09T07:21:02;5.30;99.90
73586;DHT22;61865;50.232;18.614;2023-01-09T07:23:26;5.30;99.90
73586;DHT22;61865;50.232;18.614;2023-01-09T07:25:49;5.40;99.90
73586;DHT22;61865;50.232;18.614;2023-01-09T07:28:11;5.50;99.90
73586;DHT22;61865;50.232;18.614;2023-01-09T07:30:33;5.60;99.90
73586;DHT22;61865;50.232;18.614;2023-01-09T07:32:55;5.60;99.90
73586;DHT22;61865;50.232;18.614;2023-01-09T07:35:17;5.70;99.90
73586;DHT22;61865;50.232;18.614;2023-01-09T07:37:39;5.80;99.90
73586;DHT22;61865;50.232;18.614;2023-01-09T07:40:01;5.90;99.90
73586;DHT22;61865;50.232;18.614;2023-01-09T07:42:25;6.00;99.90
73586;DHT22;61865;50.232;18.614;2023-01-09T07:44:47;6.00;99.90
73586;DHT22;61865;50.232;18.614;2023-01-09T07:47:09;6.10;99.90
73586;DHT22;61865;50.232;18.614;2023-01-09T07:49:31;6.10;99.90
73586;DHT22;61865;50.232;18.614;2023-01-09T07:51:53;6.10;99.90
73586;DHT22;61865;50.232;18.614;2023-01-09T07:54:15;6.10;99.90
73586;DHT22;61865;50.232;18.614;2023-01-09T07:56:37;6.20;99.90
73586;DHT22;61865;50.232;18.614;2023-01-09T07:59:00;6.30;99.90
73586;DHT22;61865;50.232;18.614;2023-01-09T08:01:22;6.30;99.90
73586;DHT22;61865;50.232;18.614;2023-01-09T08:03:44;6.40;99.90
73586;DHT22;61865;50.232;18.614;2023-01-09T08:06:06;6.40;99.90
73586;DHT22;61865;50.232;18.614;2023-01-09T08:08:29;6.40;99.90
73586;DHT22;61865;50.232;18.614;2023-01-09T08:10:51;6.40;99.90
73586;DHT22;61865;50.232;18.614;2023-01-09T08:13:13;6.50;99.90
73586;DHT22;61865;50.232;18.614;2023-01-09T08:15:36;6.50;99.90
73586;DHT22;61865;50.232;18.614;2023-01-09T08:17:58;6.60;99.90
73586;DHT22;61865;50.232;18.614;2023-01-09T08:20:20;6.60;99.90
73586;DHT22;61865;50.232;18.614;2023-01-09T08:22:43;6.60;99.90
73586;DHT22;61865;50.232;18.614;2023-01-09T08:25:09;6.70;99.90
73586;DHT22;61865;50.232;18.614;2023-01-09T08:27:31;6.80;99.90
73586;DHT22;61865;50.232;18.614;2023-01-09T08:29:53;6.90;99.90
73586;DHT22;61865;50.232;18.614;2023-01-09T08:32:16;6.90;99.90
73586;DHT22;61865;50.232;18.614;2023-01-09T08:34:38;6.90;99.90
73586;DHT22;61865;50.232;18.614;2023-01-09T08:37:00;7.00;99.90
73586;DHT22;61865;50.232;18.614;2023-01-09T08:39:22;7.10;99.90
73586;DHT22;61865;50.232;18.614;2023-01-09T08:41:44;7.10;99.90
73586;DHT22;61865;50.232;18.614;2023-01-09T08:44:23;7.10;99.90
73586;DHT22;61865;50.232;18.614;2023-01-09T08:47:02;7.10;99.90
73586;DHT22;61865;50.232;18.614;2023-01-09T08:49:28;7.20;99.90
73586;DHT22;61865;50.232;18.614;2023-01-09T08:51:50;7.20;99.90
73586;DHT22;61865;50.232;18.614;2023-01-09T08:54:12;7.20;99.90
73586;DHT22;61865;50.232;18.614;2023-01-09T08:56:34;7.20;99.90
73586;DHT22;61865;50.232;18.614;2023-01-09T08:58:56;7.30;99.90
73586;DHT22;61865;50.232;18.614;2023-01-09T09:01:18;7.30;99.90
73586;DHT22;61865;50.232;18.614;2023-01-09T09:03:39;7.40;99.90
73586;DHT22;61865;50.232;18.614;2023-01-09T09:06:03;7.50;99.90
73586;DHT22;61865;50.232;18.614;2023-01-09T09:08:26;7.50;99.90
73586;DHT22;61865;50.232;18.614;2023-01-09T09:10:48;7.60;99.90
73586;DHT22;61865;50.232;18.614;2023-01-09T09:13:09;7.60;99.90
73586;DHT22;61865;50.232;18.614;2023-01-09T09:15:31;7.70;99.90
73586;DHT22;61865;50.232;18.614;2023-01-09T09:17:55;7.80;99.90
73586;DHT22;61865;50.232;18.614;2023-01-09T09:20:17;7.80;99.90
73586;DHT22;61865;50.232;18.614;2023-01-09T09:22:40;7.80;99.90
73586;DHT22;61865;50.232;18.614;2023-01-09T09:25:03;7.90;99.90
73586;DHT22;61865;50.232;18.614;2023-01-09T09:27:25;8.00;99.90
73586;DHT22;61865;50.232;18.614;2023-01-09T09:29:46;8.10;99.90
73586;DHT22;61865;50.232;18.614;2023-01-09T09:32:08;8.10;99.90
73586;DHT22;61865;50.232;18.614;2023-01-09T09:34:30;8.20;99.90
73586;DHT22;61865;50.232;18.614;2023-01-09T09:36:52;8.30;99.90
73586;DHT22;61865;50.232;18.614;2023-01-09T09:39:16;8.40;99.90
73586;DHT22;61865;50.232;18.614;2023-01-09T09:42:03;8.50;99.90
73586;DHT22;61865;50.232;18.614;2023-01-09T09:44:59;8.60;99.90
73586;DHT22;61865;50.232;18.614;2023-01-09T09:47:38;8.60;99.90
73586;DHT22;61865;50.232;18.614;2023-01-09T09:50:15;8.70;99.90
73586;DHT22;61865;50.232;18.614;2023-01-09T09:52:46;8.80;99.90
73586;DHT22;61865;50.232;18.614;2023-01-09T09:55:16;8.80;99.90
73586;DHT22;61865;50.232;18.614;2023-01-09T09:57:38;8.80;99.90
73586;DHT22;61865;50.232;18.614;2023-01-09T10:00:01;8.80;99.90
73586;DHT22;61865;50.232;18.614;2023-01-09T10:02:26;8.80;99.90
73586;DHT22;61865;50.232;18.614;2023-01-09T10:04:53;8.90;99.90
73586;DHT22;61865;50.232;18.614;2023-01-09T10:07:21;8.90;99.90
73586;DHT22;61865;50.232;18.614;2023-01-09T10:09:46;8.90;99.90
73586;DHT22;61865;50.232;18.614;2023-01-09T10:12:20;8.90;99.90
73586;DHT22;61865;50.232;18.614;2023-01-09T10:14:45;8.90;99.90
73586;DHT22;61865;50.232;18.614;2023-01-09T10:17:22;8.90;99.90
73586;DHT22;61865;50.232;18.614;2023-01-09T10:22:50;9.00;99.90
73586;DHT22;61865;50.232;18.614;2023-01-09T10:25:23;9.10;99.90
73586;DHT22;61865;50.232;18.614;2023-01-09T10:27:59;9.10;99.90
73586;DHT22;61865;50.232;18.614;2023-01-09T10:30:29;9.10;99.90
73586;DHT22;61865;50.232;18.614;2023-01-09T10:32:59;9.20;99.90
73586;DHT22;61865;50.232;18.614;2023-01-09T10:35:37;9.30;99.90
73586;DHT22;61865;50.232;18.614;2023-01-09T10:38:04;9.30;99.90
73586;DHT22;61865;50.232;18.614;2023-01-09T10:40:30;9.30;99.90
73586;DHT22;61865;50.232;18.614;2023-01-09T10:42:59;9.30;99.90
73586;DHT22;61865;50.232;18.614;2023-01-09T10:45:28;9.30;99.90
73586;DHT22;61865;50.232;18.614;2023-01-09T10:47:54;9.30;99.90
73586;DHT22;61865;50.232;18.614;2023-01-09T10:50:22;9.30;99.90
73586;DHT22;61865;50.232;18.614;2023-01-09T10:52:44;9.30;99.90
73586;DHT22;61865;50.232;18.614;2023-01-09T10:55:15;9.30;99.90
73586;DHT22;61865;50.232;18.614;2023-01-09T10:57:43;9.20;99.90
73586;DHT22;61865;50.232;18.614;2023-01-09T11:00:14;9.20;99.90
73586;DHT22;61865;50.232;18.614;2023-01-09T11:02:37;9.20;99.90
73586;DHT22;61865;50.232;18.614;2023-01-09T11:04:59;9.30;99.90
73586;DHT22;61865;50.232;18.614;2023-01-09T11:07:22;9.20;99.90
73586;DHT22;61865;50.232;18.614;2023-01-09T11:09:56;9.30;99.90
73586;DHT22;61865;50.232;18.614;2023-01-09T11:12:23;9.30;99.90
73586;DHT22;61865;50.232;18.614;2023-01-09T11:14:45;9.30;99.90
73586;DHT22;61865;50.232;18.614;2023-01-09T11:17:18;9.30;99.90
73586;DHT22;61865;50.232;18.614;2023-01-09T11:19:59;9.30;99.90
73586;DHT22;61865;50.232;18.614;2023-01-09T11:22:22;9.30;99.90
73586;DHT22;61865;50.232;18.614;2023-01-09T11:24:44;9.30;99.90
73586;DHT22;61865;50.232;18.614;2023-01-09T11:27:19;9.30;99.90
73586;DHT22;61865;50.232;18.614;2023-01-09T11:29:43;9.40;99.90
73586;DHT22;61865;50.232;18.614;2023-01-09T11:32:05;9.40;99.90
73586;DHT22;61865;50.232;18.614;2023-01-09T11:34:31;9.50;99.90
73586;DHT22;61865;50.232;18.614;2023-01-09T11:37:00;9.50;99.90
73586;DHT22;61865;50.232;18.614;2023-01-09T11:39:24;9.60;99.90
73586;DHT22;61865;50.232;18.614;2023-01-09T11:41:52;9.60;99.90
73586;DHT22;61865;50.232;18.614;2023-01-09T11:44:15;9.70;99.90
73586;DHT22;61865;50.232;18.614;2023-01-09T11:46:38;9.70;99.90
73586;DHT22;61865;50.232;18.614;2023-01-09T11:49:03;9.70;99.90
73586;DHT22;61865;50.232;18.614;2023-01-09T11:51:28;9.80;99.90
73586;DHT22;61865;50.232;18.614;2023-01-09T11:54:03;9.80;99.90
73586;DHT22;61865;50.232;18.614;2023-01-09T11:56:26;9.80;99.90
73586;DHT22;61865;50.232;18.614;2023-01-09T11:58:48;9.80;99.90
73586;DHT22;61865;50.232;18.614;2023-01-09T12:01:32;9.80;99.90
73586;DHT22;61865;50.232;18.614;2023-01-09T12:04:17;9.80;99.90
73586;DHT22;61865;50.232;18.614;2023-01-09T12:06:49;9.80;99.90
73586;DHT22;61865;50.232;18.614;2023-01-09T12:09:19;9.70;99.90
73586;DHT22;61865;50.232;18.614;2023-01-09T12:11:49;9.70;99.90
73586;DHT22;61865;50.232;18.614;2023-01-09T12:14:30;9.70;99.90
73586;DHT22;61865;50.232;18.614;2023-01-09T12:20:21;9.70;99.90
73586;DHT22;61865;50.232;18.614;2023-01-09T12:22:54;9.70;99.90
73586;DHT22;61865;50.232;18.614;2023-01-09T12:25:26;9.70;99.90
73586;DHT22;61865;50.232;18.614;2023-01-09T12:28:04;9.70;99.90
73586;DHT22;61865;50.232;18.614;2023-01-09T12:30:51;9.80;99.90
73586;DHT22;61865;50.232;18.614;2023-01-09T12:33:28;9.80;99.90
73586;DHT22;61865;50.232;18.614;2023-01-09T12:36:08;9.90;99.90
73586;DHT22;61865;50.232;18.614;2023-01-09T12:38:40;9.90;99.90
73586;DHT22;61865;50.232;18.614;2023-01-09T12:41:16;9.80;99.90
73586;DHT22;61865;50.232;18.614;2023-01-09T12:43:52;9.70;99.90
73586;DHT22;61865;50.232;18.614;2023-01-09T12:46:19;9.70;99.90
73586;DHT22;61865;50.232;18.614;2023-01-09T12:51:32;9.70;99.90
73586;DHT22;61865;50.232;18.614;2023-01-09T12:54:01;9.70;99.90
73586;DHT22;61865;50.232;18.614;2023-01-09T12:56:28;9.70;99.90
73586;DHT22;61865;50.232;18.614;2023-01-09T12:58:54;9.70;99.90
73586;DHT22;61865;50.232;18.614;2023-01-09T13:01:22;9.70;99.90
73586;DHT22;61865;50.232;18.614;2023-01-09T13:03:49;9.60;99.90
73586;DHT22;61865;50.232;18.614;2023-01-09T13:06:14;9.60;99.90
73586;DHT22;61865;50.232;18.614;2023-01-09T13:08:38;9.70;99.90
73586;DHT22;61865;50.232;18.614;2023-01-09T13:11:06;9.60;99.90
73586;DHT22;61865;50.232;18.614;2023-01-09T13:13:34;9.70;99.90
73586;DHT22;61865;50.232;18.614;2023-01-09T13:16:01;9.70;99.90
73586;DHT22;61865;50.232;18.614;2023-01-09T13:18:28;9.70;99.90
73586;DHT22;61865;50.232;18.614;2023-01-09T13:20:53;9.60;99.90
73586;DHT22;61865;50.232;18.614;2023-01-09T13:23:24;9.70;99.90
73586;DHT22;61865;50.232;18.614;2023-01-09T13:25:50;9.70;99.90
73586;DHT22;61865;50.232;18.614;2023-01-09T13:28:18;9.80;99.90
73586;DHT22;61865;50.232;18.614;2023-01-09T13:33:41;9.70;99.90
73586;DHT22;61865;50.232;18.614;2023-01-09T13:36:05;9.70;99.90
73586;DHT22;61865;50.232;18.614;2023-01-09T13:38:28;9.70;99.90
73586;DHT22;61865;50.232;18.614;2023-01-09T13:41:05;9.70;99.90
73586;DHT22;61865;50.232;18.614;2023-01-09T13:43:54;9.80;99.90
73586;DHT22;61865;50.232;18.614;2023-01-09T13:46:17;9.80;99.90
73586;DHT22;61865;50.232;18.614;2023-01-09T13:48:40;9.80;99.90
73586;DHT22;61865;50.232;18.614;2023-01-09T13:57:28;9.80;99.90
73586;DHT22;61865;50.232;18.614;2023-01-09T13:59:52;9.80;99.90
73586;DHT22;61865;50.232;18.614;2023-01-09T14:05:12;9.70;99.90
73586;DHT22;61865;50.232;18.614;2023-01-09T14:07:35;9.70;99.90
73586;DHT22;61865;50.232;18.614;2023-01-09T14:09:59;9.50;99.90
73586;DHT22;61865;50.232;18.614;2023-01-09T14:12:22;9.40;99.90
73586;DHT22;61865;50.232;18.614;2023-01-09T14:14:45;9.40;99.90
73586;DHT22;61865;50.232;18.614;2023-01-09T14:17:17;9.30;99.90
73586;DHT22;61865;50.232;18.614;2023-01-09T14:19:39;9.20;99.90
73586;DHT22;61865;50.232;18.614;2023-01-09T14:22:01;9.30;99.90
73586;DHT22;61865;50.232;18.614;2023-01-09T14:24:27;9.30;99.90
73586;DHT22;61865;50.232;18.614;2023-01-09T14:26:51;9.20;99.90
73586;DHT22;61865;50.232;18.614;2023-01-09T14:29:38;9.10;99.90
73586;DHT22;61865;50.232;18.614;2023-01-09T14:35:08;8.90;99.90
73586;DHT22;61865;50.232;18.614;2023-01-09T14:37:32;8.80;99.90
73586;DHT22;61865;50.232;18.614;2023-01-09T14:39:55;8.80;99.90
73586;DHT22;61865;50.232;18.614;2023-01-09T14:42:22;8.70;99.90
73586;DHT22;61865;50.232;18.614;2023-01-09T14:44:47;8.70;99.90
73586;DHT22;61865;50.232;18.614;2023-01-09T14:47:14;8.70;99.90
73586;DHT22;61865;50.232;18.614;2023-01-09T14:49:40;8.80;99.90
73586;DHT22;61865;50.232;18.614;2023-01-09T14:52:11;8.80;99.90
73586;DHT22;61865;50.232;18.614;2023-01-09T14:54:36;8.80;99.90
73586;DHT22;61865;50.232;18.614;2023-01-09T14:56:58;8.70;99.90
73586;DHT22;61865;50.232;18.614;2023-01-09T14:59:20;8.60;99.90
73586;DHT22;61865;50.232;18.614;2023-01-09T15:01:44;8.70;99.90
73586;DHT22;61865;50.232;18.614;2023-01-09T15:04:25;8.70;99.90
73586;DHT22;61865;50.232;18.614;2023-01-09T15:06:48;8.70;99.90
73586;DHT22;61865;50.232;18.614;2023-01-09T15:09:19;8.70;99.90
73586;DHT22;61865;50.232;18.614;2023-01-09T15:11:42;8.60;99.90
73586;DHT22;61865;50.232;18.614;2023-01-09T15:14:05;8.50;99.90
73586;DHT22;61865;50.232;18.614;2023-01-09T15:16:30;8.60;99.90
73586;DHT22;61865;50.232;18.614;2023-01-09T15:18:55;8.50;99.90
73586;DHT22;61865;50.232;18.614;2023-01-09T15:21:20;8.50;99.90
73586;DHT22;61865;50.232;18.614;2023-01-09T15:23:43;8.50;99.90
73586;DHT22;61865;50.232;18.614;2023-01-09T15:26:18;8.50;99.90
73586;DHT22;61865;50.232;18.614;2023-01-09T15:28:43;8.50;99.90
73586;DHT22;61865;50.232;18.614;2023-01-09T15:31:09;8.40;99.90
73586;DHT22;61865;50.232;18.614;2023-01-09T15:33:32;8.50;99.90
73586;DHT22;61865;50.232;18.614;2023-01-09T15:35:55;8.50;99.90
73586;DHT22;61865;50.232;18.614;2023-01-09T15:38:23;8.50;99.90
73586;DHT22;61865;50.232;18.614;2023-01-09T15:40:51;8.40;99.90
73586;DHT22;61865;50.232;18.614;2023-01-09T15:43:16;8.40;99.90